createdAt,value
2023-04-10T00:14:57.764Z,53
2023-04-10T00:44:02.734Z,53
2023-04-10T01:12:59.719Z,54
2023-04-10T01:42:17.550Z,56
2023-04-10T02:11:24.071Z,55
2023-04-10T02:40:36.902Z,56
2023-04-10T03:09:51.033Z,56
2023-04-10T03:38:53.128Z,57
2023-04-10T04:08:09.407Z,58
2023-04-10T04:37:17.235Z,58
2023-04-10T05:06:23.834Z,64
2023-04-10T05:35:32.179Z,60
2023-04-10T06:04:34.459Z,61
2023-04-10T06:33:29.927Z,61
2023-04-10T07:02:49.610Z,62
2023-04-10T07:32:03.895Z,61
2023-04-10T08:01:08.898Z,59
2023-04-10T08:30:25.123Z,58
2023-04-10T08:59:34.596Z,54
2023-04-10T09:28:49.672Z,50
2023-04-10T09:58:18.293Z,48
2023-04-10T10:27:38.116Z,46
2023-04-10T10:56:47.818Z,44
2023-04-10T11:26:09.704Z,44
2023-04-10T11:55:41.039Z,37
2023-04-10T12:25:03.214Z,39
2023-04-10T12:54:23.944Z,40
2023-04-10T13:23:44.429Z,42
2023-04-10T13:53:05.668Z,40
2023-04-10T14:22:28.791Z,41
2023-04-10T14:51:42.726Z,37
2023-04-10T15:21:08.423Z,39
2023-04-10T15:50:22.241Z,40
2023-04-10T16:19:42.122Z,42
2023-04-10T16:48:58.309Z,43
2023-04-10T17:18:09.712Z,45
2023-04-10T17:47:26.974Z,45
2023-04-10T18:16:39.697Z,44
2023-04-10T18:45:55.360Z,44
2023-04-10T19:15:07.163Z,47
2023-04-10T19:44:27.252Z,47
2023-04-10T20:13:47.253Z,49
2023-04-10T20:43:11.463Z,51
2023-04-10T21:12:30.137Z,53
2023-04-10T21:41:52.387Z,54
2023-04-10T22:11:17.697Z,55
2023-04-10T22:40:37.105Z,54
2023-04-10T23:09:53.359Z,51
2023-04-10T23:39:19.950Z,49
